Terminal Aerodrome Forecast
Issued by NWS

Current Version | Previous Version | Text Only | Print | Product List | Glossary Off
Versions: 1 2 3 4 5 6 7 8 9 10 11 12 13 14 15 16 17 18

000
FTUS41 KPBZ 241000 AAA
TAFMGW
TAF AMD
KMGW 241008Z 2410/2506 34006KT P6SM BKN015
     FM241300 35005KT P6SM OVC025
     FM241600 36008KT P6SM BKN035
     FM242200 01004KT P6SM SCT040=

USA.gov is the U.S. government's official web portal to all federal, state and local government web resources and services.